sensor_id;sensor_type;location;lat;lon;timestamp;pressure;altitude;pressure_sealevel;temperature;humidity
49342;BME280;35210;41.606;-87.602;2023-03-25T00:01:19;99047.78;;;8.24;70.74
49342;BME280;35210;41.606;-87.602;2023-03-25T00:03:52;99048.00;;;8.21;70.57
49342;BME280;35210;41.606;-87.602;2023-03-25T00:06:20;99059.38;;;8.21;71.58
49342;BME280;35210;41.606;-87.602;2023-03-25T00:08:51;99054.72;;;8.25;71.04
49342;BME280;35210;41.606;-87.602;2023-03-25T00:11:21;99048.19;;;8.31;70.90
49342;BME280;35210;41.606;-87.602;2023-03-25T00:13:49;99027.56;;;8.37;70.83
49342;BME280;35210;41.606;-87.602;2023-03-25T00:16:19;99028.28;;;8.39;70.63
49342;BME280;35210;41.606;-87.602;2023-03-25T00:18:47;99018.47;;;8.41;70.79
49342;BME280;35210;41.606;-87.602;2023-03-25T00:21:17;99018.97;;;8.46;70.72
49342;BME280;35210;41.606;-87.602;2023-03-25T00:23:46;99016.34;;;8.46;70.50
49342;BME280;35210;41.606;-87.602;2023-03-25T00:26:15;99028.91;;;8.54;71.02
49342;BME280;35210;41.606;-87.602;2023-03-25T00:28:44;99032.88;;;8.60;71.37
49342;BME280;35210;41.606;-87.602;2023-03-25T00:31:13;99026.09;;;8.68;70.46
49342;BME280;35210;41.606;-87.602;2023-03-25T00:33:42;99029.59;;;8.80;70.24
49342;BME280;35210;41.606;-87.602;2023-03-25T00:36:11;99028.88;;;8.89;70.57
49342;BME280;35210;41.606;-87.602;2023-03-25T00:38:43;99024.09;;;8.94;70.02
49342;BME280;35210;41.606;-87.602;2023-03-25T00:41:17;99023.72;;;8.99;70.39
49342;BME280;35210;41.606;-87.602;2023-03-25T00:43:53;99021.34;;;9.07;70.33
49342;BME280;35210;41.606;-87.602;2023-03-25T00:46:24;99002.31;;;9.14;71.28
49342;BME280;35210;41.606;-87.602;2023-03-25T00:48:53;98992.03;;;9.22;71.15
49342;BME280;35210;41.606;-87.602;2023-03-25T00:51:22;98986.50;;;9.26;71.09
49342;BME280;35210;41.606;-87.602;2023-03-25T00:53:53;98989.97;;;9.26;71.63
49342;BME280;35210;41.606;-87.602;2023-03-25T00:56:22;99000.16;;;9.31;71.47
49342;BME280;35210;41.606;-87.602;2023-03-25T00:58:52;99003.16;;;9.37;72.66
49342;BME280;35210;41.606;-87.602;2023-03-25T01:01:22;98996.69;;;9.41;71.32
49342;BME280;35210;41.606;-87.602;2023-03-25T01:03:52;98998.94;;;9.46;71.43
49342;BME280;35210;41.606;-87.602;2023-03-25T01:06:24;99008.41;;;9.48;69.91
49342;BME280;35210;41.606;-87.602;2023-03-25T01:08:56;99006.16;;;9.33;66.57
49342;BME280;35210;41.606;-87.602;2023-03-25T01:11:26;99008.31;;;9.28;67.67
49342;BME280;35210;41.606;-87.602;2023-03-25T01:13:56;99007.09;;;9.32;68.91
49342;BME280;35210;41.606;-87.602;2023-03-25T01:16:26;99018.13;;;9.26;67.67
49342;BME280;35210;41.606;-87.602;2023-03-25T01:18:55;99018.47;;;9.21;68.79
49342;BME280;35210;41.606;-87.602;2023-03-25T01:21:23;99022.44;;;9.27;69.70
49342;BME280;35210;41.606;-87.602;2023-03-25T01:23:51;99016.31;;;9.26;69.91
49342;BME280;35210;41.606;-87.602;2023-03-25T01:26:20;99003.50;;;9.21;71.37
49342;BME280;35210;41.606;-87.602;2023-03-25T01:28:48;98990.22;;;9.23;71.43
49342;BME280;35210;41.606;-87.602;2023-03-25T01:31:20;98992.38;;;9.18;69.12
49342;BME280;35210;41.606;-87.602;2023-03-25T01:33:51;98995.59;;;9.21;69.29
49342;BME280;35210;41.606;-87.602;2023-03-25T01:36:19;98980.41;;;9.14;70.74
49342;BME280;35210;41.606;-87.602;2023-03-25T01:38:50;98983.41;;;9.09;74.02
49342;BME280;35210;41.606;-87.602;2023-03-25T01:41:18;98997.88;;;8.93;73.16
49342;BME280;35210;41.606;-87.602;2023-03-25T01:44:01;98996.31;;;8.79;74.23
49342;BME280;35210;41.606;-87.602;2023-03-25T01:46:31;98988.63;;;8.53;71.25
49342;BME280;35210;41.606;-87.602;2023-03-25T01:49:00;98992.78;;;8.45;71.19
49342;BME280;35210;41.606;-87.602;2023-03-25T01:51:33;98988.09;;;8.37;74.06
49342;BME280;35210;41.606;-87.602;2023-03-25T01:54:03;98971.72;;;8.21;74.69
49342;BME280;35210;41.606;-87.602;2023-03-25T01:56:35;98968.75;;;8.25;74.99
49342;BME280;35210;41.606;-87.602;2023-03-25T01:59:08;98968.16;;;8.11;76.25
49342;BME280;35210;41.606;-87.602;2023-03-25T02:01:40;98960.59;;;8.06;77.07
49342;BME280;35210;41.606;-87.602;2023-03-25T02:04:11;98958.56;;;8.10;77.28
49342;BME280;35210;41.606;-87.602;2023-03-25T02:06:43;98936.81;;;8.08;77.98
49342;BME280;35210;41.606;-87.602;2023-03-25T02:09:15;98922.09;;;8.05;78.85
49342;BME280;35210;41.606;-87.602;2023-03-25T02:11:44;98934.31;;;8.06;79.44
49342;BME280;35210;41.606;-87.602;2023-03-25T02:14:16;98928.50;;;7.66;80.11
49342;BME280;35210;41.606;-87.602;2023-03-25T02:16:54;98931.88;;;7.68;80.44
49342;BME280;35210;41.606;-87.602;2023-03-25T02:19:46;98921.22;;;7.46;82.45
49342;BME280;35210;41.606;-87.602;2023-03-25T02:26:03;98886.00;;;7.37;83.43
49342;BME280;35210;41.606;-87.602;2023-03-25T02:28:42;98895.56;;;7.38;84.24
49342;BME280;35210;41.606;-87.602;2023-03-25T02:31:32;98895.16;;;7.32;84.17
49342;BME280;35210;41.606;-87.602;2023-03-25T02:34:28;98897.50;;;7.23;84.66
49342;BME280;35210;41.606;-87.602;2023-03-25T02:37:22;98915.38;;;7.18;85.94
49342;BME280;35210;41.606;-87.602;2023-03-25T02:40:03;98920.56;;;7.31;84.51
49342;BME280;35210;41.606;-87.602;2023-03-25T02:42:39;98905.16;;;7.27;85.36
49342;BME280;35210;41.606;-87.602;2023-03-25T02:45:16;98906.31;;;7.22;85.62
49342;BME280;35210;41.606;-87.602;2023-03-25T02:47:53;98893.19;;;7.22;85.97
49342;BME280;35210;41.606;-87.602;2023-03-25T02:50:32;98875.88;;;7.20;86.27
49342;BME280;35210;41.606;-87.602;2023-03-25T02:53:04;98864.00;;;7.14;87.13
49342;BME280;35210;41.606;-87.602;2023-03-25T02:55:39;98849.00;;;7.16;87.33
49342;BME280;35210;41.606;-87.602;2023-03-25T02:58:11;98843.97;;;7.13;86.21
49342;BME280;35210;41.606;-87.602;2023-03-25T03:00:43;98837.47;;;7.06;86.82
49342;BME280;35210;41.606;-87.602;2023-03-25T03:03:13;98822.78;;;7.04;86.72
49342;BME280;35210;41.606;-87.602;2023-03-25T03:05:44;98808.03;;;6.90;86.95
49342;BME280;35210;41.606;-87.602;2023-03-25T03:08:29;98790.75;;;6.75;87.57
49342;BME280;35210;41.606;-87.602;2023-03-25T03:11:09;98781.19;;;6.74;88.46
49342;BME280;35210;41.606;-87.602;2023-03-25T03:13:57;98762.47;;;6.67;89.08
49342;BME280;35210;41.606;-87.602;2023-03-25T03:16:32;98737.44;;;6.50;89.24
49342;BME280;35210;41.606;-87.602;2023-03-25T03:19:16;98721.84;;;6.36;89.30
49342;BME280;35210;41.606;-87.602;2023-03-25T03:21:55;98702.25;;;6.29;89.90
49342;BME280;35210;41.606;-87.602;2023-03-25T03:24:30;98666.09;;;6.21;89.71
49342;BME280;35210;41.606;-87.602;2023-03-25T03:27:06;98644.72;;;6.15;90.06
49342;BME280;35210;41.606;-87.602;2023-03-25T03:29:44;98632.56;;;6.14;89.90
49342;BME280;35210;41.606;-87.602;2023-03-25T03:32:15;98606.25;;;6.15;90.24
49342;BME280;35210;41.606;-87.602;2023-03-25T03:34:50;98582.03;;;6.12;nan
49342;BME280;35210;41.606;-87.602;2023-03-25T03:37:25;98565.34;;;6.13;90.80
49342;BME280;35210;41.606;-87.602;2023-03-25T03:39:56;98584.44;;;6.15;90.84
49342;BME280;35210;41.606;-87.602;2023-03-25T03:42:31;98603.41;;;6.18;89.64
49342;BME280;35210;41.606;-87.602;2023-03-25T03:45:07;98599.59;;;6.22;89.16
49342;BME280;35210;41.606;-87.602;2023-03-25T03:47:46;98610.72;;;6.26;89.34
49342;BME280;35210;41.606;-87.602;2023-03-25T03:50:19;98590.97;;;6.33;89.36
49342;BME280;35210;41.606;-87.602;2023-03-25T03:52:52;98571.66;;;6.34;89.58
49342;BME280;35210;41.606;-87.602;2023-03-25T03:55:27;98576.47;;;6.40;89.18
49342;BME280;35210;41.606;-87.602;2023-03-25T03:58:02;98571.72;;;6.45;88.08
49342;BME280;35210;41.606;-87.602;2023-03-25T04:00:36;98568.88;;;6.48;86.78
49342;BME280;35210;41.606;-87.602;2023-03-25T04:03:12;98570.31;;;6.52;87.56
49342;BME280;35210;41.606;-87.602;2023-03-25T04:05:49;98538.84;;;6.52;86.19
49342;BME280;35210;41.606;-87.602;2023-03-25T04:08:26;98512.00;;;6.49;85.29
49342;BME280;35210;41.606;-87.602;2023-03-25T04:11:01;98503.97;;;6.39;83.12
49342;BME280;35210;41.606;-87.602;2023-03-25T04:13:38;98509.94;;;6.06;81.93
49342;BME280;35210;41.606;-87.602;2023-03-25T04:16:09;98499.59;;;6.16;82.31
49342;BME280;35210;41.606;-87.602;2023-03-25T04:18:37;98479.53;;;6.04;82.13
49342;BME280;35210;41.606;-87.602;2023-03-25T04:21:09;98495.94;;;5.94;82.54
49342;BME280;35210;41.606;-87.602;2023-03-25T04:23:40;98480.00;;;5.98;82.75
49342;BME280;35210;41.606;-87.602;2023-03-25T04:26:15;98466.66;;;6.01;82.60
49342;BME280;35210;41.606;-87.602;2023-03-25T04:28:48;98475.69;;;5.97;80.28
49342;BME280;35210;41.606;-87.602;2023-03-25T04:31:16;98455.22;;;6.02;81.50
49342;BME280;35210;41.606;-87.602;2023-03-25T04:33:48;98452.22;;;5.95;79.90
49342;BME280;35210;41.606;-87.602;2023-03-25T04:36:17;98471.88;;;5.89;79.02
49342;BME280;35210;41.606;-87.602;2023-03-25T04:38:47;98458.03;;;5.87;79.81
49342;BME280;35210;41.606;-87.602;2023-03-25T04:41:18;98450.69;;;5.92;80.21
49342;BME280;35210;41.606;-87.602;2023-03-25T04:43:48;98444.16;;;5.98;80.85
49342;BME280;35210;41.606;-87.602;2023-03-25T04:46:17;98456.16;;;5.89;81.59
49342;BME280;35210;41.606;-87.602;2023-03-25T04:48:47;98430.94;;;6.00;81.05
49342;BME280;35210;41.606;-87.602;2023-03-25T04:51:15;98421.53;;;6.08;81.67
49342;BME280;35210;41.606;-87.602;2023-03-25T04:53:44;98419.53;;;6.12;81.17
49342;BME280;35210;41.606;-87.602;2023-03-25T04:56:15;98405.25;;;6.16;80.60
49342;BME280;35210;41.606;-87.602;2023-03-25T04:58:45;98400.63;;;6.19;80.73
49342;BME280;35210;41.606;-87.602;2023-03-25T05:01:21;98415.13;;;6.12;81.03
49342;BME280;35210;41.606;-87.602;2023-03-25T05:03:49;98402.50;;;6.17;82.06
49342;BME280;35210;41.606;-87.602;2023-03-25T05:06:18;98400.81;;;6.05;82.21
49342;BME280;35210;41.606;-87.602;2023-03-25T05:08:46;98398.31;;;6.04;82.90
49342;BME280;35210;41.606;-87.602;2023-03-25T05:11:15;98363.50;;;6.02;82.12
49342;BME280;35210;41.606;-87.602;2023-03-25T05:13:43;98353.28;;;6.10;83.03
49342;BME280;35210;41.606;-87.602;2023-03-25T05:16:11;98313.00;;;6.00;82.80
49342;BME280;35210;41.606;-87.602;2023-03-25T05:18:41;98342.44;;;6.03;82.95
49342;BME280;35210;41.606;-87.602;2023-03-25T05:21:10;98304.91;;;6.03;83.23
49342;BME280;35210;41.606;-87.602;2023-03-25T05:23:38;98326.34;;;5.97;83.64
49342;BME280;35210;41.606;-87.602;2023-03-25T05:26:07;98291.81;;;5.91;84.03
49342;BME280;35210;41.606;-87.602;2023-03-25T05:28:37;98262.50;;;5.86;83.96
49342;BME280;35210;41.606;-87.602;2023-03-25T05:31:08;98293.22;;;5.84;85.07
49342;BME280;35210;41.606;-87.602;2023-03-25T05:33:38;98268.66;;;5.74;84.93
49342;BME280;35210;41.606;-87.602;2023-03-25T05:36:11;98257.94;;;5.77;85.23
49342;BME280;35210;41.606;-87.602;2023-03-25T05:38:41;98257.47;;;5.83;85.63
49342;BME280;35210;41.606;-87.602;2023-03-25T05:41:10;98232.59;;;5.78;85.81
49342;BME280;35210;41.606;-87.602;2023-03-25T05:43:42;98224.03;;;5.76;86.35
49342;BME280;35210;41.606;-87.602;2023-03-25T05:46:12;98222.94;;;5.78;85.89
49342;BME280;35210;41.606;-87.602;2023-03-25T05:48:40;98219.16;;;5.82;86.76
49342;BME280;35210;41.606;-87.602;2023-03-25T05:51:14;98201.16;;;5.78;86.74
49342;BME280;35210;41.606;-87.602;2023-03-25T05:53:43;98192.69;;;5.74;86.98
49342;BME280;35210;41.606;-87.602;2023-03-25T05:56:14;98182.47;;;5.71;86.69
49342;BME280;35210;41.606;-87.602;2023-03-25T05:58:44;98155.06;;;5.64;87.31
49342;BME280;35210;41.606;-87.602;2023-03-25T06:01:13;98151.88;;;5.60;87.59
49342;BME280;35210;41.606;-87.602;2023-03-25T06:03:44;98146.03;;;5.57;87.87
49342;BME280;35210;41.606;-87.602;2023-03-25T06:06:17;98135.78;;;5.54;87.59
49342;BME280;35210;41.606;-87.602;2023-03-25T06:08:47;98124.72;;;5.50;88.19
49342;BME280;35210;41.606;-87.602;2023-03-25T06:11:17;98118.66;;;5.50;88.01
49342;BME280;35210;41.606;-87.602;2023-03-25T06:13:47;98132.19;;;5.33;88.51
49342;BME280;35210;41.606;-87.602;2023-03-25T06:16:17;98132.19;;;5.33;89.59
49342;BME280;35210;41.606;-87.602;2023-03-25T06:18:48;98115.06;;;5.28;89.73
49342;BME280;35210;41.606;-87.602;2023-03-25T06:21:23;98104.22;;;5.22;90.17
49342;BME280;35210;41.606;-87.602;2023-03-25T06:23:52;98087.69;;;5.21;91.20
49342;BME280;35210;41.606;-87.602;2023-03-25T06:26:22;98081.97;;;5.27;91.61
49342;BME280;35210;41.606;-87.602;2023-03-25T06:28:50;98064.63;;;5.26;92.30
49342;BME280;35210;41.606;-87.602;2023-03-25T06:31:20;98051.31;;;5.18;92.70
49342;BME280;35210;41.606;-87.602;2023-03-25T06:33:51;98052.50;;;5.14;93.45
49342;BME280;35210;41.606;-87.602;2023-03-25T06:36:19;98039.88;;;5.08;94.08
49342;BME280;35210;41.606;-87.602;2023-03-25T06:38:52;98027.16;;;5.04;94.46
49342;BME280;35210;41.606;-87.602;2023-03-25T06:41:20;98011.69;;;5.01;95.90
49342;BME280;35210;41.606;-87.602;2023-03-25T06:43:50;97997.44;;;5.05;96.30
49342;BME280;35210;41.606;-87.602;2023-03-25T06:46:18;97991.13;;;5.07;96.75
49342;BME280;35210;41.606;-87.602;2023-03-25T06:48:46;97969.97;;;5.10;96.20
49342;BME280;35210;41.606;-87.602;2023-03-25T06:51:14;97956.41;;;5.05;95.78
49342;BME280;35210;41.606;-87.602;2023-03-25T06:53:43;97936.91;;;4.87;96.77
49342;BME280;35210;41.606;-87.602;2023-03-25T06:56:12;97939.50;;;4.76;97.13
49342;BME280;35210;41.606;-87.602;2023-03-25T06:58:40;97936.31;;;4.83;97.98
49342;BME280;35210;41.606;-87.602;2023-03-25T07:01:09;97931.09;;;4.83;98.33
49342;BME280;35210;41.606;-87.602;2023-03-25T07:03:37;97926.44;;;4.87;98.82
49342;BME280;35210;41.606;-87.602;2023-03-25T07:06:06;97913.59;;;4.84;98.58
49342;BME280;35210;41.606;-87.602;2023-03-25T07:08:34;97921.94;;;4.78;99.05
49342;BME280;35210;41.606;-87.602;2023-03-25T07:11:04;97908.13;;;4.76;99.29
49342;BME280;35210;41.606;-87.602;2023-03-25T07:13:36;97884.13;;;4.71;99.45
49342;BME280;35210;41.606;-87.602;2023-03-25T07:16:05;97877.72;;;4.63;99.09
49342;BME280;35210;41.606;-87.602;2023-03-25T07:18:33;97877.47;;;4.55;100.00
49342;BME280;35210;41.606;-87.602;2023-03-25T07:21:02;97869.63;;;4.55;100.00
49342;BME280;35210;41.606;-87.602;2023-03-25T07:23:30;97871.78;;;4.61;100.00
49342;BME280;35210;41.606;-87.602;2023-03-25T07:26:00;97872.72;;;4.60;100.00
49342;BME280;35210;41.606;-87.602;2023-03-25T07:28:29;97864.03;;;4.60;100.00
49342;BME280;35210;41.606;-87.602;2023-03-25T07:31:00;97855.38;;;4.59;100.00
49342;BME280;35210;41.606;-87.602;2023-03-25T07:33:29;97851.09;;;4.70;100.00
49342;BME280;35210;41.606;-87.602;2023-03-25T07:35:57;97842.66;;;4.77;100.00
49342;BME280;35210;41.606;-87.602;2023-03-25T07:38:26;97831.59;;;4.74;100.00
49342;BME280;35210;41.606;-87.602;2023-03-25T07:40:54;97835.53;;;4.68;100.00
49342;BME280;35210;41.606;-87.602;2023-03-25T07:43:23;97832.44;;;4.74;100.00
49342;BME280;35210;41.606;-87.602;2023-03-25T07:45:53;97818.16;;;4.78;100.00
49342;BME280;35210;41.606;-87.602;2023-03-25T07:48:24;97804.38;;;4.76;100.00
49342;BME280;35210;41.606;-87.602;2023-03-25T07:50:53;97815.91;;;4.74;100.00
49342;BME280;35210;41.606;-87.602;2023-03-25T07:53:21;97807.56;;;4.80;100.00
49342;BME280;35210;41.606;-87.602;2023-03-25T07:55:49;97797.81;;;4.82;100.00
49342;BME280;35210;41.606;-87.602;2023-03-25T07:58:18;97781.66;;;4.77;100.00
49342;BME280;35210;41.606;-87.602;2023-03-25T08:00:46;97776.44;;;4.77;100.00
49342;BME280;35210;41.606;-87.602;2023-03-25T08:03:14;97756.97;;;4.70;100.00
49342;BME280;35210;41.606;-87.602;2023-03-25T08:05:46;97743.78;;;4.71;100.00
49342;BME280;35210;41.606;-87.602;2023-03-25T08:08:15;97720.13;;;4.73;100.00
49342;BME280;35210;41.606;-87.602;2023-03-25T08:10:44;97720.59;;;4.67;100.00
49342;BME280;35210;41.606;-87.602;2023-03-25T08:13:13;97714.44;;;4.56;100.00
49342;BME280;35210;41.606;-87.602;2023-03-25T08:15:41;97708.56;;;4.43;100.00
49342;BME280;35210;41.606;-87.602;2023-03-25T08:18:09;97701.16;;;4.48;100.00
49342;BME280;35210;41.606;-87.602;2023-03-25T08:20:37;97678.88;;;4.44;100.00
49342;BME280;35210;41.606;-87.602;2023-03-25T08:23:07;97664.84;;;4.45;100.00
49342;BME280;35210;41.606;-87.602;2023-03-25T08:25:38;97668.84;;;4.49;100.00
49342;BME280;35210;41.606;-87.602;2023-03-25T08:28:07;97657.19;;;4.53;100.00
49342;BME280;35210;41.606;-87.602;2023-03-25T08:30:35;97660.06;;;4.50;100.00
49342;BME280;35210;41.606;-87.602;2023-03-25T08:33:05;97650.31;;;4.52;100.00
49342;BME280;35210;41.606;-87.602;2023-03-25T08:35:36;97641.75;;;4.50;100.00
49342;BME280;35210;41.606;-87.602;2023-03-25T08:38:05;97642.59;;;4.51;100.00
49342;BME280;35210;41.606;-87.602;2023-03-25T08:40:35;97639.84;;;4.52;100.00
49342;BME280;35210;41.606;-87.602;2023-03-25T08:43:04;97626.06;;;4.50;100.00
49342;BME280;35210;41.606;-87.602;2023-03-25T08:45:33;97622.25;;;4.54;100.00
49342;BME280;35210;41.606;-87.602;2023-03-25T08:48:02;97613.47;;;4.55;100.00
49342;BME280;35210;41.606;-87.602;2023-03-25T08:50:31;97604.09;;;4.53;100.00
49342;BME280;35210;41.606;-87.602;2023-03-25T08:52:59;97590.53;;;4.59;100.00
49342;BME280;35210;41.606;-87.602;2023-03-25T08:55:28;97608.38;;;4.54;100.00
49342;BME280;35210;41.606;-87.602;2023-03-25T08:58:01;97617.25;;;4.62;100.00
49342;BME280;35210;41.606;-87.602;2023-03-25T09:00:29;97610.22;;;4.63;100.00
49342;BME280;35210;41.606;-87.602;2023-03-25T09:02:57;97590.16;;;4.63;100.00
49342;BME280;35210;41.606;-87.602;2023-03-25T09:05:26;97590.00;;;4.65;100.00
49342;BME280;35210;41.606;-87.602;2023-03-25T09:07:54;97578.28;;;4.59;100.00
49342;BME280;35210;41.606;-87.602;2023-03-25T09:10:23;97574.97;;;4.57;100.00
49342;BME280;35210;41.606;-87.602;2023-03-25T09:12:52;97565.22;;;4.59;100.00
49342;BME280;35210;41.606;-87.602;2023-03-25T09:15:22;97555.00;;;4.56;100.00
49342;BME280;35210;41.606;-87.602;2023-03-25T09:17:50;97545.88;;;4.51;100.00
49342;BME280;35210;41.606;-87.602;2023-03-25T09:20:19;97547.41;;;4.53;100.00
49342;BME280;35210;41.606;-87.602;2023-03-25T09:22:47;97563.81;;;4.55;100.00
49342;BME280;35210;41.606;-87.602;2023-03-25T09:25:16;97548.94;;;4.56;100.00
49342;BME280;35210;41.606;-87.602;2023-03-25T09:27:44;97531.28;;;4.48;100.00
49342;BME280;35210;41.606;-87.602;2023-03-25T09:30:12;97526.50;;;4.53;100.00
49342;BME280;35210;41.606;-87.602;2023-03-25T09:32:43;97534.66;;;4.60;100.00
49342;BME280;35210;41.606;-87.602;2023-03-25T09:35:11;97513.38;;;4.65;100.00
49342;BME280;35210;41.606;-87.602;2023-03-25T09:37:39;97493.41;;;4.63;100.00
49342;BME280;35210;41.606;-87.602;2023-03-25T09:40:11;97525.50;;;4.66;100.00
49342;BME280;35210;41.606;-87.602;2023-03-25T09:42:58;97519.44;;;4.65;100.00
49342;BME280;35210;41.606;-87.602;2023-03-25T09:45:33;97512.88;;;4.71;100.00
49342;BME280;35210;41.606;-87.602;2023-03-25T09:48:14;97524.47;;;4.78;100.00
49342;BME280;35210;41.606;-87.602;2023-03-25T09:50:47;97510.56;;;4.77;100.00
49342;BME280;35210;41.606;-87.602;2023-03-25T09:53:24;97492.78;;;4.71;100.00
49342;BME280;35210;41.606;-87.602;2023-03-25T09:55:54;97502.41;;;4.71;100.00
49342;BME280;35210;41.606;-87.602;2023-03-25T09:58:35;97495.25;;;4.73;100.00
49342;BME280;35210;41.606;-87.602;2023-03-25T10:01:18;97498.31;;;4.78;100.00
49342;BME280;35210;41.606;-87.602;2023-03-25T10:03:56;97504.94;;;4.82;100.00
49342;BME280;35210;41.606;-87.602;2023-03-25T10:06:30;97508.84;;;4.87;100.00
49342;BME280;35210;41.606;-87.602;2023-03-25T10:09:15;97513.28;;;4.97;100.00
49342;BME280;35210;41.606;-87.602;2023-03-25T10:11:50;97511.38;;;4.99;100.00
49342;BME280;35210;41.606;-87.602;2023-03-25T10:14:25;97505.75;;;5.03;100.00
49342;BME280;35210;41.606;-87.602;2023-03-25T10:17:03;97501.53;;;5.12;100.00
49342;BME280;35210;41.606;-87.602;2023-03-25T10:19:45;97501.25;;;5.15;100.00
49342;BME280;35210;41.606;-87.602;2023-03-25T10:22:25;97495.22;;;5.14;100.00
49342;BME280;35210;41.606;-87.602;2023-03-25T10:24:56;97495.22;;;5.14;100.00
49342;BME280;35210;41.606;-87.602;2023-03-25T10:27:32;97505.66;;;5.14;100.00
49342;BME280;35210;41.606;-87.602;2023-03-25T10:30:10;97475.38;;;5.12;100.00
49342;BME280;35210;41.606;-87.602;2023-03-25T10:32:42;97469.56;;;5.08;100.00
49342;BME280;35210;41.606;-87.602;2023-03-25T10:35:17;97449.59;;;5.07;100.00
49342;BME280;35210;41.606;-87.602;2023-03-25T10:37:48;97438.44;;;5.05;100.00
49342;BME280;35210;41.606;-87.602;2023-03-25T10:40:22;97442.84;;;5.05;100.00
49342;BME280;35210;41.606;-87.602;2023-03-25T10:42:58;97444.50;;;5.06;100.00
49342;BME280;35210;41.606;-87.602;2023-03-25T10:45:33;97441.75;;;5.07;100.00
49342;BME280;35210;41.606;-87.602;2023-03-25T10:48:06;97452.47;;;5.04;100.00
49342;BME280;35210;41.606;-87.602;2023-03-25T10:50:41;97454.84;;;5.07;100.00
49342;BME280;35210;41.606;-87.602;2023-03-25T10:53:19;97446.19;;;5.16;100.00
49342;BME280;35210;41.606;-87.602;2023-03-25T10:55:54;97447.28;;;5.23;100.00
49342;BME280;35210;41.606;-87.602;2023-03-25T10:58:24;97436.72;;;5.35;100.00
49342;BME280;35210;41.606;-87.602;2023-03-25T11:00:52;97437.00;;;5.41;100.00
49342;BME280;35210;41.606;-87.602;2023-03-25T11:03:25;97433.84;;;5.47;99.65
49342;BME280;35210;41.606;-87.602;2023-03-25T11:05:58;97433.72;;;5.49;99.67
49342;BME280;35210;41.606;-87.602;2023-03-25T11:08:26;97439.09;;;5.47;99.66
49342;BME280;35210;41.606;-87.602;2023-03-25T11:10:54;97425.88;;;5.49;100.00
49342;BME280;35210;41.606;-87.602;2023-03-25T11:13:27;97421.06;;;5.54;99.60
49342;BME280;35210;41.606;-87.602;2023-03-25T11:15:58;97403.28;;;5.57;98.80
49342;BME280;35210;41.606;-87.602;2023-03-25T11:18:33;97395.44;;;5.57;99.10
49342;BME280;35210;41.606;-87.602;2023-03-25T11:21:07;97399.44;;;5.61;98.56
49342;BME280;35210;41.606;-87.602;2023-03-25T11:23:41;97396.66;;;5.53;99.29
49342;BME280;35210;41.606;-87.602;2023-03-25T11:26:12;97390.19;;;5.48;99.13
49342;BME280;35210;41.606;-87.602;2023-03-25T11:28:46;97385.63;;;5.50;99.87
49342;BME280;35210;41.606;-87.602;2023-03-25T11:31:17;97387.84;;;5.54;100.00
49342;BME280;35210;41.606;-87.602;2023-03-25T11:33:59;97385.91;;;5.56;99.89
49342;BME280;35210;41.606;-87.602;2023-03-25T11:36:32;97377.09;;;5.57;99.75
49342;BME280;35210;41.606;-87.602;2023-03-25T11:39:13;97366.91;;;5.64;99.51
49342;BME280;35210;41.606;-87.602;2023-03-25T11:41:45;97358.66;;;5.69;98.68
49342;BME280;35210;41.606;-87.602;2023-03-25T11:44:22;97357.81;;;5.68;98.17
49342;BME280;35210;41.606;-87.602;2023-03-25T11:46:55;97349.81;;;5.70;99.19
49342;BME280;35210;41.606;-87.602;2023-03-25T11:49:25;97357.53;;;5.71;98.96
49342;BME280;35210;41.606;-87.602;2023-03-25T11:52:04;97347.47;;;5.76;99.22
49342;BME280;35210;41.606;-87.602;2023-03-25T11:54:35;97334.50;;;5.84;98.64
49342;BME280;35210;41.606;-87.602;2023-03-25T11:57:09;97327.22;;;5.78;98.02
49342;BME280;35210;41.606;-87.602;2023-03-25T11:59:43;97334.94;;;5.80;97.52
49342;BME280;35210;41.606;-87.602;2023-03-25T12:02:22;97345.81;;;5.75;97.50
49342;BME280;35210;41.606;-87.602;2023-03-25T12:04:57;97340.03;;;5.72;98.05
49342;BME280;35210;41.606;-87.602;2023-03-25T12:07:29;97339.91;;;5.73;98.45
49342;BME280;35210;41.606;-87.602;2023-03-25T12:10:16;97345.13;;;5.73;98.46
49342;BME280;35210;41.606;-87.602;2023-03-25T12:12:52;97338.94;;;5.74;97.46
49342;BME280;35210;41.606;-87.602;2023-03-25T12:15:34;97343.47;;;5.72;97.78
49342;BME280;35210;41.606;-87.602;2023-03-25T12:18:20;97335.63;;;5.72;97.91
49342;BME280;35210;41.606;-87.602;2023-03-25T12:20:58;97344.16;;;5.74;98.38
49342;BME280;35210;41.606;-87.602;2023-03-25T12:23:38;97336.31;;;5.74;98.39
49342;BME280;35210;41.606;-87.602;2023-03-25T12:26:14;97341.28;;;5.77;98.31
49342;BME280;35210;41.606;-87.602;2023-03-25T12:29:11;97326.25;;;5.79;97.87
49342;BME280;35210;41.606;-87.602;2023-03-25T12:31:57;97343.34;;;5.74;98.38
49342;BME280;35210;41.606;-87.602;2023-03-25T12:34:39;97347.75;;;5.73;98.52
49342;BME280;35210;41.606;-87.602;2023-03-25T12:37:22;97346.78;;;5.74;98.96
49342;BME280;35210;41.606;-87.602;2023-03-25T12:40:13;97343.88;;;5.77;98.33
49342;BME280;35210;41.606;-87.602;2023-03-25T12:42:50;97353.25;;;5.80;98.64
49342;BME280;35210;41.606;-87.602;2023-03-25T12:45:31;97358.22;;;5.83;98.12
49342;BME280;35210;41.606;-87.602;2023-03-25T12:48:10;97353.81;;;5.83;98.52
49342;BME280;35210;41.606;-87.602;2023-03-25T12:50:54;97348.84;;;5.80;98.79
49342;BME280;35210;41.606;-87.602;2023-03-25T12:53:36;97357.53;;;5.81;99.61
49342;BME280;35210;41.606;-87.602;2023-03-25T12:56:21;97357.69;;;5.79;99.43
49342;BME280;35210;41.606;-87.602;2023-03-25T13:02:23;97360.19;;;5.90;100.00
49342;BME280;35210;41.606;-87.602;2023-03-25T13:05:15;97370.06;;;5.97;99.34
49342;BME280;35210;41.606;-87.602;2023-03-25T13:07:54;97367.59;;;6.05;99.10
49342;BME280;35210;41.606;-87.602;2023-03-25T13:10:29;97362.75;;;6.10;98.74
49342;BME280;35210;41.606;-87.602;2023-03-25T13:13:10;97363.00;;;6.16;98.19
49342;BME280;35210;41.606;-87.602;2023-03-25T13:15:43;97361.78;;;6.11;97.91
49342;BME280;35210;41.606;-87.602;2023-03-25T13:18:20;97363.72;;;6.09;98.46
49342;BME280;35210;41.606;-87.602;2023-03-25T13:20:54;97363.31;;;6.04;98.47
49342;BME280;35210;41.606;-87.602;2023-03-25T13:23:27;97359.16;;;6.11;98.69